Home > Products > Valid Products > MTR

000
SAUS45 KPIH 301452
MTRSNT
METAR KSNT 301451Z AUTO 34004KT 03/M03 A3008 RMK AO1 SLP146
T00331028 51011





000
SAUS45 KPIH 301352
MTRSNT
METAR KSNT 301351Z AUTO 05003KT 01/M02 A3007 RMK AO1 SLP152
T00061017





000
SAUS45 KPIH 301352
MTRSNT
METAR KSNT 301351Z AUTO 05003KT 01/M02 A3007 RMK AO1 SLP152
T00061017





000
SAUS45 KPIH 301252
MTRSNT
METAR KSNT 301251Z AUTO 00000KT M01/M03 A3005 RMK AO1 SLP145
T10061028





000
SAUS45 KPIH 301252
MTRSNT
METAR KSNT 301251Z AUTO 00000KT M01/M03 A3005 RMK AO1 SLP145
T10061028





000
SAUS45 KPIH 301152
MTRSNT
METAR KSNT 301151Z AUTO 00000KT M01/M03 A3004 RMK AO1 SLP138 70002
T10061028 10017 21022 53012





000
SAUS45 KPIH 301152
MTRSNT
METAR KSNT 301151Z AUTO 00000KT M01/M03 A3004 RMK AO1 SLP138 70002
T10061028 10017 21022 53012





000
SAUS45 KPIH 301055 COR
MTRSNT
METAR KSNT 301051Z AUTO 00000KT M01/M03 A3002 RMK AO1 SLP124
T10111028





000
SAUS45 KPIH 301055 COR
MTRSNT
METAR KSNT 301051Z AUTO 00000KT M01/M03 A3002 RMK AO1 SLP124
T10111028





000
SAUS45 KPIH 300952
MTRSNT
METAR KSNT 300951Z AUTO 00000KT M01/M03 A3001 RMK AO1 SLP123
T10111033





000
SAUS45 KPIH 300852
MTRSNT
METAR KSNT 300851Z AUTO 00000KT M01/M04 A3000 RMK AO1 SLP123
T10111039 53007





000
SAUS45 KPIH 300852
MTRSNT
METAR KSNT 300851Z AUTO 00000KT M01/M04 A3000 RMK AO1 SLP123
T10111039 53007





000
SAUS45 KPIH 300752
MTRSNT
METAR KSNT 300751Z AUTO 26003KT M01/M03 A2999 RMK AO1 SLP122
T10061028





000
SAUS45 KPIH 300652
MTRSNT
METAR KSNT 300651Z AUTO 29004KT 00/M02 A2998 RMK AO1 SLP116
T00001022 401111006





000
SAUS45 KPIH 300652
MTRSNT
METAR KSNT 300651Z AUTO 29004KT 00/M02 A2998 RMK AO1 SLP116
T00001022 401111006





000
SAUS45 KPIH 300552
MTRSNT
METAR KSNT 300551Z AUTO 31004KT 02/M01 A2997 RMK AO1 SLP114 60001
T00171011 10072 20017 51015





000
SAUS45 KPIH 300452
MTRSNT
METAR KSNT 300451Z AUTO 00000KT 03/M01 A2997 RMK AO1 SLP110
T00331006





000
SAUS45 KPIH 300452
MTRSNT
METAR KSNT 300451Z AUTO 00000KT 03/M01 A2997 RMK AO1 SLP110
T00331006





000
SAUS45 KPIH 300352
MTRSNT
METAR KSNT 300351Z AUTO 31003KT 04/M01 A2994 RMK AO1 SLP101
T00441006





000
SAUS45 KPIH 300252
MTRSNT
METAR KSNT 300251Z AUTO 31003KT 05/00 A2992 RMK AO1 SLP095 60001
T00500000 51016





000
SAUS45 KPIH 300152
MTRSNT
METAR KSNT 300151Z AUTO 28003KT 05/01 A2990 RMK AO1 SLP090 P0001
T00500006





000
SAUS45 KPIH 300052
MTRSNT
METAR KSNT 300051Z AUTO 31006KT 06/M01 A2988 RMK AO1 SLP083
T00611006





000
SAUS45 KPIH 300052
MTRSNT
METAR KSNT 300051Z AUTO 31006KT 06/M01 A2988 RMK AO1 SLP083
T00611006





000
SAUS45 KPIH 292353
MTRSNT
METAR KSNT 292351Z AUTO 34012G21KT 07/M01 A2986 RMK AO1 SLP072
T00721011 10111 20044 55001





000
SAUS45 KPIH 292353
MTRSNT
METAR KSNT 292351Z AUTO 34012G21KT 07/M01 A2986 RMK AO1 SLP072
T00721011 10111 20044 55001





000
SAUS45 KPIH 292252
MTRSNT
METAR KSNT 292251Z AUTO 29009G16KT 250V350 11/M02 A2984 RMK AO1
SLP058 T01061017





000
SAUS45 KPIH 292152
MTRSNT
METAR KSNT 292151Z AUTO 35006KT 09/M01 A2985 RMK AO1 SLP062
T00891006





000
SAUS45 KPIH 292052
MTRSNT
METAR KSNT 292051Z AUTO VRB04KT 07/01 A2986 RMK AO1 SLP073 T00720006
56009





000
SAUS45 KPIH 291952
MTRSNT
METAR KSNT 291951Z AUTO 34004KT 06/01 A2988 RMK AO1 SLP083 T00610011





000
SAUS45 KPIH 291852
MTRSNT
METAR KSNT 291851Z AUTO 00000KT 07/02 A2988 RMK AO1 SLP082 T00670017





000
SAUS45 KPIH 291755 COR
MTRSNT
METAR KSNT 291751Z AUTO 00000KT 05/00 A2990 RMK AO1 SLP085 60001
T00500000 10050 20006 55000





000
SAUS45 KPIH 291652
MTRSNT
METAR KSNT 291651Z AUTO 03004KT 04/00 A2989 RMK AO1 SLP081 T00440000





000
SAUS45 KPIH 291652
MTRSNT
METAR KSNT 291651Z AUTO 03004KT 04/00 A2989 RMK AO1 SLP081 T00440000





000
SAUS45 KPIH 291552
MTRSNT
METAR KSNT 291551Z AUTO 10003KT 03/00 A2990 RMK AO1 SLP083 T00330000





000
SAUS45 KPIH 291452
MTRSNT
METAR KSNT 291451Z AUTO 00000KT 02/00 A2990 RMK AO1 SLP085 P0001
60001 T00170000 56001





000
SAUS45 KPIH 291352
MTRSNT
METAR KSNT 291351Z AUTO 00000KT 01/M01 A2990 RMK AO1 SLP082
T00111006





000
SAUS45 KPIH 291352
MTRSNT
METAR KSNT 291351Z AUTO 00000KT 01/M01 A2990 RMK AO1 SLP082
T00111006





000
SAUS45 KPIH 291252
MTRSNT
METAR KSNT 291251Z AUTO 00000KT 01/M01 A2989 RMK AO1 SLP081
T00061011





000
SAUS45 KPIH 291152
MTRSNT
METAR KSNT 291151Z AUTO 00000KT 01/M01 A2990 RMK AO1 SLP083 60002
7//// T00061011 10028 21006 58004





000
SAUS45 KPIH 291152
MTRSNT
METAR KSNT 291151Z AUTO 00000KT 01/M01 A2990 RMK AO1 SLP083 60002
7//// T00061011 10028 21006 58004





000
SAUS45 KPIH 291052
MTRSNT
METAR KSNT 291051Z AUTO 00000KT 01/M01 A2991 RMK AO1 SLP087 P0002
T00061011





000
SAUS45 KPIH 290952
MTRSNT
METAR KSNT 290951Z AUTO 00000KT 01/M02 A2991 RMK AO1 SLP089
T00061017





000
SAUS45 KPIH 290852
MTRSNT
METAR KSNT 290851Z AUTO 00000KT 00/M02 A2991 RMK AO1 SLP088
T00001017 58003





000
SAUS45 KPIH 290852
MTRSNT
METAR KSNT 290851Z AUTO 00000KT 00/M02 A2991 RMK AO1 SLP088
T00001017 58003





000
SAUS45 KPIH 290753
MTRSNT
METAR KSNT 290751Z AUTO 00000KT M01/M02 A2992 RMK AO1 SLP094
T10061022





000
SAUS45 KPIH 290652
MTRSNT
METAR KSNT 290651Z AUTO 18004KT 00/M02 A2992 RMK AO1 SLP094
T00001022 400940000





000
SAUS45 KPIH 290652
MTRSNT
METAR KSNT 290651Z AUTO 18004KT 00/M02 A2992 RMK AO1 SLP094
T00001022 400940000





000
SAUS45 KPIH 290552
MTRSNT
METAR KSNT 290551Z AUTO 00000KT 03/M01 A2992 RMK AO1 SLP092
T00281006 10083 20028 50011





000
SAUS45 KPIH 290452
MTRSNT
METAR KSNT 290451Z AUTO 32004KT 04/M01 A2993 RMK AO1 SLP094
T00391011





000
SAUS45 KPIH 290352
MTRSNT
METAR KSNT 290351Z AUTO 34005KT 05/M02 A2991 RMK AO1 SLPNO T00501017





000
SAUS45 KPIH 290252
MTRSNT
METAR KSNT 290251Z AUTO 30003KT 06/M03 A2988 RMK AO1 SLP078
T00611033 53002





000
SAUS45 KPIH 290153
MTRSNT
METAR KSNT 290151Z AUTO 30006KT 07/M04 A2987 RMK AO1 SLP077
T00721039





000
SAUS45 KPIH 290153
MTRSNT
METAR KSNT 290151Z AUTO 30006KT 07/M04 A2987 RMK AO1 SLP077
T00721039





000
SAUS45 KPIH 290052
MTRSNT
METAR KSNT 290051Z AUTO 32004KT 08/M04 A2988 RMK AO1 SLP075
T00831044





000
SAUS45 KPIH 290052
MTRSNT
METAR KSNT 290051Z AUTO 32004KT 08/M04 A2988 RMK AO1 SLP075
T00831044





000
SAUS45 KPIH 282352
MTRSNT
METAR KSNT 282351Z AUTO 35006KT 08/M04 A2988 RMK AO1 SLP072
T00831044 10094 20061 58001





000
SAUS45 KPIH 282352
MTRSNT
METAR KSNT 282351Z AUTO 35006KT 08/M04 A2988 RMK AO1 SLP072
T00831044 10094 20061 58001





000
SAUS45 KPIH 282252
MTRSNT
METAR KSNT 282251Z AUTO 02005KT 08/M04 A2988 RMK AO1 SLP073
T00831044





000
SAUS45 KPIH 282152
MTRSNT
METAR KSNT 282151Z AUTO 08/M04 A2988 RMK AO1 SLP074 T00831044





000
SAUS45 KPIH 282052
MTRSNT
METAR KSNT 282051Z AUTO VRB04KT 08/M04 A2988 RMK AO1 SLP073
T00831044 58002





000
SAUS45 KPIH 282052
MTRSNT
METAR KSNT 282051Z AUTO VRB04KT 08/M04 A2988 RMK AO1 SLP073
T00831044 58002





000
SAUS45 KPIH 281952
MTRSNT
METAR KSNT 281951Z AUTO 01008KT 08/M04 A2988 RMK AO1 SLP072
T00831044





000
SAUS45 KPIH 281852
MTRSNT
METAR KSNT 281851Z AUTO 35006KT 07/M04 A2989 RMK AO1 SLP076
T00721039





000
SAUS45 KPIH 281752
MTRSNT
METAR KSNT 281751Z AUTO 35004KT 06/M04 A2989 RMK AO1 SLP079 6////
T00611039 55002





000
SAUS45 KPIH 281652
MTRSNT
METAR KSNT 281651Z AUTO 34006KT 05/M03 A2988 RMK AO1 SLP082
T00501033





000
SAUS45 KPIH 281552
MTRSNT
METAR KSNT 281551Z AUTO A2988 RMK AO1 SLPNO PNO $





000
SAUS45 KPIH 281452
MTRSNT
METAR KSNT 281451Z AUTO 32005KT 03/M01 A2989 RMK AO1 SLP090
T00281006 50004





000
SAUS45 KPIH 281352
MTRSNT
METAR KSNT 281351Z AUTO 29003KT 01/M01 A2990 RMK AO1 SLP094
T00061011





000
SAUS45 KPIH 281252
MTRSNT
METAR KSNT 281251Z AUTO 27004KT 01/M01 A2988 RMK AO1 SLP086
T00061011





000
SAUS45 KPIH 281152
MTRSNT
METAR KSNT 281151Z AUTO 29004KT 01/M01 A2988 RMK AO1 SLP082 70014
T00111006 10022 20011 53003





000
SAUS45 KPIH 281052
MTRSNT
METAR KSNT 281051Z AUTO 00000KT 01/00 A2988 RMK AO1 SLP081 T00110000





000
SAUS45 KPIH 280952
MTRSNT
METAR KSNT 280951Z AUTO 34004KT 02/00 A2987 RMK AO1 SLP079 T00170000





000
SAUS45 KPIH 280852
MTRSNT
METAR KSNT 280851Z AUTO 00000KT 02/00 A2987 RMK AO1 SLP073 T00170000
53001





000
SAUS45 KPIH 280752
MTRSNT
METAR KSNT 280751Z AUTO 00000KT 02/01 A2987 RMK AO1 SLP065 T00220006





000
SAUS45 KPIH 280652
MTRSNT
METAR KSNT 280651Z AUTO 00000KT 02/01 A2987 RMK AO1 SLP064 T00220006
401061039





000
SAUS45 KPIH 280552
MTRSNT
METAR KSNT 280551Z AUTO 00000KT 02/01 A2987 RMK AO1 SLP067 60006
T00220006 10067 20011 53005





000
SAUS45 KPIH 280552
MTRSNT
METAR KSNT 280551Z AUTO 00000KT 02/01 A2987 RMK AO1 SLP067 60006
T00220006 10067 20011 53005





000
SAUS45 KPIH 280452
MTRSNT
METAR KSNT 280451Z AUTO 00000KT 02/00 A2986 RMK AO1 SLP067 T00170000





000
SAUS45 KPIH 280452
MTRSNT
METAR KSNT 280451Z AUTO 00000KT 02/00 A2986 RMK AO1 SLP067 T00170000





000
SAUS45 KPIH 280354
MTRSNT
METAR KSNT 280351Z AUTO 00000KT 02/00 A2985 RMK AO1 SLP073 T00170000





000
SAUS45 KPIH 280252
MTRSNT
METAR KSNT 280251Z AUTO 00000KT 03/01 A2985 RMK AO1 SLP079 60006
T00280006 53003





000
SAUS45 KPIH 280153
MTRSNT
METAR KSNT 280151Z AUTO 01003KT 03/01 A2984 RMK AO1 SLP078 P0006
T00330011





000
SAUS45 KPIH 280153
MTRSNT
METAR KSNT 280151Z AUTO 01003KT 03/01 A2984 RMK AO1 SLP078 P0006
T00330011





000
SAUS45 KPIH 280052
MTRSNT
METAR KSNT 280051Z AUTO VRB05KT 04/01 A2984 RMK AO1 SLP079 T00440011





000
SAUS45 KPIH 272352
MTRSNT
METAR KSNT 272351Z AUTO 16007KT 06/02 A2984 RMK AO1 SLP075 60008
T00560017 10106 20039 58003





000
SAUS45 KPIH 272352
MTRSNT
METAR KSNT 272351Z AUTO 16007KT 06/02 A2984 RMK AO1 SLP075 60008
T00560017 10106 20039 58003





000
SAUS45 KPIH 272252
MTRSNT
METAR KSNT 272251Z AUTO VRB05KT 05/02 A2985 RMK AO1 SLP078 P0001
T00500022





000
SAUS45 KPIH 272152
MTRSNT
METAR KSNT 272151Z AUTO 17006KT 04/02 A2986 RMK AO1 SLP082 P0007
T00440017





000
SAUS45 KPIH 272052
MTRSNT
METAR KSNT 272051Z AUTO 10010G16KT 07/M01 A2985 RMK AO1 SLP071
T00721006 55000





000
SAUS45 KPIH 271952
MTRSNT
METAR KSNT 271951Z AUTO 14009G16KT 10/M03 A2983 RMK AO1 SLP060
T01001033





000
SAUS45 KPIH 271952
MTRSNT
METAR KSNT 271951Z AUTO 14009G16KT 10/M03 A2983 RMK AO1 SLP060
T01001033





000
SAUS45 KPIH 271852
MTRSNT
METAR KSNT 271851Z AUTO VRB04KT 09/M06 A2983 RMK AO1 SLP062
T00941061





000
SAUS45 KPIH 271752
MTRSNT
METAR KSNT 271751Z AUTO 00000KT 08/M02 A2985 RMK AO1 SLP068
T00831022 10094 21039 56012





000
SAUS45 KPIH 271654
MTRSNT
METAR KSNT 271651Z AUTO VRB04KT 08/M01 A2986 RMK AO1 SLP071
T00781011





000
SAUS45 KPIH 271654
MTRSNT
METAR KSNT 271651Z AUTO VRB04KT 08/M01 A2986 RMK AO1 SLP071
T00781011





000
SAUS45 KPIH 271552
MTRSNT
METAR KSNT 271551Z AUTO 02004KT 05/M02 A2988 RMK AO1 SLP081
T00501017





    US Dept of Commerce
    National Oceanic and Atmospheric Administration
    National Weather Service
    1325 East West Highway
    Silver Spring, MD 20910
    Page Author: NWS Internet Services Team
Disclaimer
Information Quality
Credits
Glossary
Privacy Policy
Freedom of Information Act (FOIA)
About Us
Career Opportunities